UKHH/HRK METAR and TAF weather

Enter ICAO airport designator
Station Type Date Time Source
UKHH METAR 2020/03/30 10:00 UTC NOAA

UKHH 301000Z 32002MPS CAVOK 17/M06 Q1001 R25/0///81 NOSIG


Station Type Date Time Source
UKHH Decoded METAR 2020/03/30 10:00 UTC NOAA

Kharkiv, Ukraine (UKHH) 49-58N 036-08E 155M
Mar 30, 2020 - 06:00 AM EDT / 2020.03.30 1000 UTC
Wind: from the NW (320 degrees) at 4 MPH (4 KT):0
Visibility: greater than 7 mile(s):0
Temperature: 62 F (17 C)
Dew Point: 21 F (-6 C)
Relative Humidity: 20%
Pressure (altimeter): 29.56 in. Hg (1001 hPa)
ob: UKHH 301000Z 32002MPS CAVOK 17/M06 Q1001 R25/0///81 NOSIG
cycle: 10

Station Type Date Time Source
UKHH TAF 2020/03/30 07:09 UTC NOAA

TAF TAF UKHH 300606Z 3007/3106 33004MPS 9999 BKN030 TX15/3012Z TN02/3104Z
TEMPO 3009/3018 34006G12MPS 2100 -SHRA BKN007 BKN015CB
TEMPO 3100/3106 34006G12MPS 2100 -SHRASN BKN007 BKN015CB

Example: see airport list